Time;durP1;ratioP1;P1;durP2;ratioP2;P2;SDS_P1;SDS_P2;PMS_P1;PMS_P2;Temp;Humidity;BMP_temperature;BMP_pressure;BME280_temperature;BME280_humidity;BME280_pressure;Samples;Min_cycle;Max_cycle;Signal;HPM_P1;HPM_P2
2022/07/11 00:01:13;;;;;;;3.20;3.00;;;13.70;99.90;;;;;;5035871;28;20212;-78
2022/07/11 00:03:39;;;;;;;2.97;2.70;;;13.70;99.90;;;;;;5028431;28;20244;-78
2022/07/11 00:06:06;;;;;;;5.23;2.97;;;13.60;99.90;;;;;;5042203;28;20199;-78
2022/07/11 00:08:33;;;;;;;2.80;2.60;;;13.50;99.90;;;;;;5033561;28;20245;-78
2022/07/11 00:11:00;;;;;;;4.67;3.33;;;13.40;99.90;;;;;;5033032;28;20200;-78
2022/07/11 00:13:27;;;;;;;3.40;3.10;;;13.40;99.90;;;;;;5033339;28;20726;-78
2022/07/11 00:15:55;;;;;;;2.80;2.70;;;13.40;99.90;;;;;;5031254;28;20238;-79
2022/07/11 00:18:23;;;;;;;3.77;2.90;;;13.40;99.90;;;;;;5035026;28;20198;-78
2022/07/11 00:20:50;;;;;;;3.60;2.90;;;13.40;99.90;;;;;;5034566;28;20293;-78
2022/07/11 00:23:18;;;;;;;2.90;2.70;;;13.30;99.90;;;;;;5027244;28;20703;-77
2022/07/11 00:25:45;;;;;;;3.00;2.70;;;13.30;99.90;;;;;;5032738;28;20200;-79
2022/07/11 00:28:11;;;;;;;3.37;3.07;;;13.30;99.90;;;;;;5031995;28;20200;-78
2022/07/11 00:30:38;;;;;;;3.70;2.97;;;13.30;99.90;;;;;;5029394;28;20691;-79
2022/07/11 00:33:06;;;;;;;2.90;2.70;;;13.40;99.90;;;;;;5034349;28;20223;-78
2022/07/11 00:35:33;;;;;;;4.00;3.70;;;13.40;99.90;;;;;;5034184;28;20225;-78
2022/07/11 00:38:00;;;;;;;5.10;4.70;;;13.40;99.90;;;;;;5026432;28;20250;-78
2022/07/11 00:40:27;;;;;;;5.10;4.80;;;13.50;99.90;;;;;;5034718;28;20195;-78
2022/07/11 00:42:54;;;;;;;6.00;5.10;;;13.50;99.90;;;;;;5031670;28;20731;-78
2022/07/11 00:45:20;;;;;;;5.40;5.00;;;13.50;99.90;;;;;;5034109;28;20227;-78
2022/07/11 00:47:47;;;;;;;5.77;5.37;;;13.60;99.90;;;;;;5034547;28;20192;-78
2022/07/11 00:50:16;;;;;;;5.70;5.20;;;13.60;99.90;;;;;;5029486;28;20745;-79
2022/07/11 00:52:44;;;;;;;5.40;5.00;;;13.60;99.90;;;;;;5030703;28;20227;-78
2022/07/11 00:55:11;;;;;;;5.77;5.40;;;13.70;99.90;;;;;;5031117;28;20242;-78
2022/07/11 00:57:39;;;;;;;4.00;3.80;;;13.80;99.90;;;;;;5016310;28;20214;-78
2022/07/11 01:00:07;;;;;;;4.53;4.23;;;13.80;99.90;;;;;;5033398;28;20226;-78
2022/07/11 01:02:34;;;;;;;5.47;5.07;;;13.90;99.90;;;;;;5018948;28;20267;-78
2022/07/11 01:05:01;;;;;;;2.00;1.90;;;13.90;99.90;;;;;;5036694;28;20755;-78
2022/07/11 01:07:31;;;;;;;1.93;1.83;;;14.00;99.90;;;;;;5025518;28;20202;-79
2022/07/11 01:09:57;;;;;;;2.50;2.23;;;14.00;99.90;;;;;;5035208;28;20242;-78
2022/07/11 01:12:25;;;;;;;2.10;2.00;;;14.00;99.90;;;;;;5032999;28;20204;-78
2022/07/11 01:14:53;;;;;;;3.10;2.00;;;14.10;99.90;;;;;;5036733;28;20273;-78
2022/07/11 01:17:20;;;;;;;2.40;2.23;;;14.10;99.90;;;;;;5035250;28;20742;-78
2022/07/11 01:19:47;;;;;;;3.27;2.30;;;14.10;99.90;;;;;;5032310;28;20680;-79
2022/07/11 01:22:15;;;;;;;2.73;2.00;;;14.20;99.90;;;;;;5012734;28;20266;-78
2022/07/11 01:24:44;;;;;;;2.30;2.10;;;14.10;99.90;;;;;;5034821;28;20278;-78
2022/07/11 01:27:11;;;;;;;3.33;2.30;;;14.10;99.90;;;;;;5035460;28;20203;-78
2022/07/11 01:29:39;;;;;;;2.70;2.03;;;14.10;99.90;;;;;;5037808;28;20254;-78
2022/07/11 01:32:06;;;;;;;3.63;2.37;;;14.10;99.90;;;;;;5036224;28;20184;-78
2022/07/11 01:34:33;;;;;;;2.10;2.00;;;14.20;99.90;;;;;;5036852;28;20350;-78
2022/07/11 01:37:00;;;;;;;2.30;2.10;;;14.10;99.90;;;;;;5037746;28;20254;-78
2022/07/11 01:39:29;;;;;;;3.47;2.20;;;14.20;99.90;;;;;;5033269;28;20228;-78
2022/07/11 01:41:57;;;;;;;3.77;2.17;;;14.10;99.90;;;;;;5032477;28;20286;-78
2022/07/11 01:44:24;;;;;;;2.20;2.00;;;14.10;99.90;;;;;;5027492;28;20219;-78
2022/07/11 01:46:51;;;;;;;2.30;2.10;;;14.10;99.90;;;;;;5025752;28;20563;-80
2022/07/11 01:49:18;;;;;;;2.17;2.07;;;14.00;99.90;;;;;;5033435;28;20267;-78
2022/07/11 01:51:45;;;;;;;2.03;1.90;;;14.00;99.90;;;;;;5031363;28;20267;-78
2022/07/11 01:54:11;;;;;;;2.00;1.90;;;14.00;99.90;;;;;;5034704;28;20230;-78
2022/07/11 01:56:38;;;;;;;2.20;2.00;;;14.00;99.90;;;;;;5029169;28;20197;-78
2022/07/11 01:59:06;;;;;;;1.93;1.80;;;14.00;99.90;;;;;;5037313;28;20188;-78
2022/07/11 02:01:34;;;;;;;2.33;2.20;;;14.00;99.90;;;;;;5037435;28;20243;-78
2022/07/11 02:04:01;;;;;;;2.57;2.37;;;13.90;99.90;;;;;;5029094;28;20220;-80
2022/07/11 02:06:28;;;;;;;2.47;2.23;;;13.90;99.90;;;;;;5026121;28;20551;-78
2022/07/11 02:08:54;;;;;;;2.27;2.07;;;13.90;99.90;;;;;;5035506;28;20188;-78
2022/07/11 02:11:21;;;;;;;2.27;2.07;;;13.90;99.90;;;;;;5035308;28;20204;-78
2022/07/11 02:13:48;;;;;;;3.10;2.03;;;13.90;99.90;;;;;;5033952;28;20211;-78
2022/07/11 02:16:16;;;;;;;1.90;1.73;;;13.90;99.90;;;;;;5037007;28;20197;-78
2022/07/11 02:18:43;;;;;;;2.37;2.17;;;13.80;99.90;;;;;;5037035;28;20234;-78
2022/07/11 02:21:12;;;;;;;2.20;2.00;;;13.80;99.90;;;;;;5003074;28;20242;-79
2022/07/11 02:23:39;;;;;;;2.40;2.20;;;13.80;99.90;;;;;;5018656;28;20219;-78
2022/07/11 02:26:05;;;;;;;2.27;2.10;;;13.70;99.90;;;;;;5029065;28;20214;-78
2022/07/11 02:28:34;;;;;;;3.60;2.50;;;13.70;99.90;;;;;;5030333;28;20195;-78
2022/07/11 02:31:00;;;;;;;2.67;2.20;;;13.60;99.90;;;;;;5026370;28;20207;-78
2022/07/11 02:33:29;;;;;;;2.40;2.20;;;13.50;99.90;;;;;;5028288;28;20224;-78
2022/07/11 02:35:55;;;;;;;4.53;2.13;;;13.50;99.90;;;;;;5035688;28;20742;-78
2022/07/11 02:38:22;;;;;;;2.37;2.17;;;13.40;99.90;;;;;;5037107;28;20196;-78
2022/07/11 02:40:49;;;;;;;2.13;2.00;;;13.40;99.90;;;;;;5033365;28;20215;-78
2022/07/11 02:43:16;;;;;;;2.57;2.23;;;13.40;99.90;;;;;;5029374;28;20219;-78
2022/07/11 02:45:42;;;;;;;3.77;2.30;;;13.40;99.90;;;;;;5038052;28;20211;-78
2022/07/11 02:48:09;;;;;;;2.13;1.93;;;13.30;99.90;;;;;;5036267;28;20277;-78
2022/07/11 02:50:37;;;;;;;2.50;2.30;;;13.30;99.90;;;;;;5019908;28;20192;-78
2022/07/11 02:53:04;;;;;;;3.30;2.40;;;13.30;99.90;;;;;;5035029;28;20227;-80
2022/07/11 02:55:31;;;;;;;2.70;2.00;;;13.20;99.90;;;;;;5031552;28;20192;-79
2022/07/11 02:57:59;;;;;;;2.50;2.30;;;13.10;99.90;;;;;;5027474;28;20724;-81
2022/07/11 03:00:26;;;;;;;2.40;2.20;;;13.10;99.90;;;;;;5030069;28;20188;-81
2022/07/11 03:02:53;;;;;;;2.40;2.20;;;13.10;99.90;;;;;;5037133;28;20650;-82
2022/07/11 03:05:20;;;;;;;2.93;2.40;;;13.10;99.90;;;;;;5038370;28;20191;-81
2022/07/11 03:07:48;;;;;;;2.47;2.33;;;13.10;99.90;;;;;;5029660;28;20195;-81
2022/07/11 03:10:15;;;;;;;2.20;2.10;;;13.10;99.90;;;;;;5035400;28;20196;-79
2022/07/11 03:12:43;;;;;;;2.40;2.30;;;13.10;99.90;;;;;;5036902;28;20188;-79
2022/07/11 03:15:10;;;;;;;2.07;1.97;;;13.10;99.90;;;;;;5037073;28;20230;-79
2022/07/11 03:17:37;;;;;;;2.40;2.20;;;13.10;99.90;;;;;;5036511;28;20238;-79
2022/07/11 03:20:05;;;;;;;2.20;2.00;;;13.10;99.90;;;;;;5027839;28;20264;-81
2022/07/11 03:22:32;;;;;;;2.27;2.17;;;13.10;99.90;;;;;;5029400;28;20220;-79
2022/07/11 03:25:03;;;;;;;2.40;2.20;;;13.10;99.90;;;;;;5025300;28;20220;-79
2022/07/11 03:27:30;;;;;;;2.10;2.00;;;13.10;99.90;;;;;;5021265;28;20630;-80
2022/07/11 03:29:57;;;;;;;2.20;2.00;;;13.20;99.90;;;;;;5017572;28;20572;-79
2022/07/11 03:32:24;;;;;;;2.23;2.07;;;13.20;99.90;;;;;;5035538;28;20191;-79
2022/07/11 03:37:32;;;;;;;2.10;2.00;;;13.20;99.90;;;;;;5036483;28;20249;-81
2022/07/11 03:40:00;;;;;;;2.40;2.20;;;13.30;99.90;;;;;;5029633;28;20210;-80
2022/07/11 03:42:27;;;;;;;2.13;2.00;;;13.30;99.90;;;;;;5034000;28;20309;-82
2022/07/11 03:44:54;;;;;;;2.00;1.90;;;13.30;99.90;;;;;;5048588;28;20218;-81
2022/07/11 03:47:21;;;;;;;2.20;2.00;;;13.30;99.90;;;;;;5034286;28;20210;-80
2022/07/11 03:49:48;;;;;;;2.30;2.10;;;13.30;99.90;;;;;;5035354;28;20621;-81
2022/07/11 03:52:15;;;;;;;2.20;2.10;;;13.40;99.90;;;;;;5032919;28;20192;-82
2022/07/11 03:54:43;;;;;;;2.67;2.07;;;13.40;99.90;;;;;;5030838;28;20219;-80
2022/07/11 03:57:11;;;;;;;2.30;2.10;;;13.40;99.90;;;;;;5024385;28;20251;-80
2022/07/11 03:59:37;;;;;;;2.30;2.10;;;13.30;99.90;;;;;;5032780;28;20747;-80
2022/07/11 04:02:05;;;;;;;2.30;2.20;;;13.30;99.90;;;;;;5043586;28;20251;-82
2022/07/11 04:04:32;;;;;;;2.50;2.30;;;13.40;99.90;;;;;;5028457;28;20246;-84
2022/07/11 04:06:59;;;;;;;2.27;2.07;;;13.40;99.90;;;;;;5037629;28;20288;-81
2022/07/11 04:09:26;;;;;;;2.33;2.23;;;13.40;99.90;;;;;;5033676;28;20250;-81
2022/07/11 04:11:52;;;;;;;2.03;1.83;;;13.40;99.90;;;;;;5032090;28;20751;-81
2022/07/11 04:14:20;;;;;;;2.10;2.00;;;13.40;99.90;;;;;;5033542;28;20302;-81
2022/07/11 04:16:47;;;;;;;3.57;2.87;;;13.40;99.90;;;;;;5026135;28;20192;-81
2022/07/11 04:19:14;;;;;;;2.30;2.10;;;13.50;99.90;;;;;;5030793;28;20257;-80
2022/07/11 04:21:41;;;;;;;2.30;2.10;;;13.60;99.90;;;;;;5033554;28;20194;-81
2022/07/11 04:24:10;;;;;;;2.10;2.00;;;13.60;99.90;;;;;;5026955;28;20281;-81
2022/07/11 04:26:37;;;;;;;2.40;2.20;;;13.70;99.90;;;;;;5025174;28;20204;-81
2022/07/11 04:29:04;;;;;;;2.20;1.97;;;13.80;99.90;;;;;;5034254;28;20580;-83
2022/07/11 04:31:32;;;;;;;2.10;2.00;;;13.80;99.90;;;;;;5029017;28;20250;-81
2022/07/11 04:33:59;;;;;;;3.43;2.13;;;13.90;99.90;;;;;;5028722;28;20286;-82
2022/07/11 04:36:26;;;;;;;2.10;2.00;;;13.90;99.90;;;;;;5030165;28;20239;-81
2022/07/11 04:38:56;;;;;;;2.20;2.00;;;13.90;99.90;;;;;;5033138;28;20207;-79
2022/07/11 04:41:22;;;;;;;2.17;2.00;;;14.00;99.90;;;;;;5015992;28;20200;-81
2022/07/11 04:43:49;;;;;;;2.23;2.03;;;14.00;99.90;;;;;;5026943;28;20223;-82
2022/07/11 04:46:16;;;;;;;2.90;2.20;;;14.10;99.90;;;;;;5029426;28;20201;-83
2022/07/11 04:48:44;;;;;;;2.30;2.10;;;14.10;99.90;;;;;;5026857;28;20691;-81
2022/07/11 04:51:11;;;;;;;3.33;2.07;;;14.20;99.90;;;;;;5045534;28;20262;-81
2022/07/11 04:53:38;;;;;;;2.30;2.10;;;14.30;99.90;;;;;;5031282;28;20664;-81
2022/07/11 04:56:07;;;;;;;3.20;2.10;;;14.40;99.90;;;;;;5023887;28;20220;-80
2022/07/11 04:58:33;;;;;;;3.43;2.27;;;14.40;99.90;;;;;;5018315;28;20681;-81
2022/07/11 05:01:01;;;;;;;2.37;2.10;;;14.50;99.90;;;;;;5020546;28;20203;-81
2022/07/11 05:03:28;;;;;;;2.40;2.20;;;14.60;99.90;;;;;;5028143;28;20232;-82
2022/07/11 05:05:56;;;;;;;2.07;1.97;;;14.70;99.90;;;;;;5017403;28;20224;-81
2022/07/11 05:08:23;;;;;;;2.50;2.07;;;14.80;99.90;;;;;;5032721;28;20613;-81
2022/07/11 05:10:50;;;;;;;2.37;2.00;;;14.90;99.90;;;;;;5034449;28;20254;-80
2022/07/11 05:13:17;;;;;;;2.20;2.10;;;15.00;99.90;;;;;;5033548;28;20628;-81
2022/07/11 05:15:44;;;;;;;2.20;2.00;;;15.00;99.90;;;;;;5034192;28;20247;-81
2022/07/11 05:18:11;;;;;;;2.20;2.00;;;15.10;99.90;;;;;;5009711;28;20267;-81
2022/07/11 05:20:38;;;;;;;3.33;2.30;;;15.20;99.90;;;;;;5034953;28;20200;-81
2022/07/11 05:23:06;;;;;;;2.27;2.00;;;15.40;99.90;;;;;;5025420;28;20648;-81
2022/07/11 05:25:33;;;;;;;2.87;2.10;;;15.50;99.90;;;;;;5026842;28;20194;-80
2022/07/11 05:28:00;;;;;;;2.50;2.20;;;15.60;99.90;;;;;;5034019;28;20197;-79
2022/07/11 05:30:26;;;;;;;2.23;1.97;;;15.70;99.90;;;;;;5016426;28;20244;-78
2022/07/11 05:32:53;;;;;;;2.23;2.03;;;15.90;99.90;;;;;;5016154;28;20198;-80
2022/07/11 05:35:20;;;;;;;2.43;2.10;;;16.20;99.90;;;;;;5030640;28;20224;-79
2022/07/11 05:37:47;;;;;;;3.07;2.10;;;16.50;99.90;;;;;;5043508;28;20194;-79
2022/07/11 05:40:15;;;;;;;3.20;2.20;;;16.70;99.90;;;;;;5029649;28;20233;-79
2022/07/11 05:42:42;;;;;;;3.37;2.27;;;16.80;99.90;;;;;;5033540;28;20235;-80
2022/07/11 05:45:10;;;;;;;2.20;2.00;;;16.90;99.90;;;;;;5031311;28;20189;-79
2022/07/11 05:47:36;;;;;;;4.53;2.30;;;17.10;99.90;;;;;;5018960;28;20200;-79
2022/07/11 05:50:04;;;;;;;3.47;3.23;;;17.30;99.90;;;;;;5035627;28;20529;-79
2022/07/11 05:52:31;;;;;;;4.00;3.10;;;17.50;99.90;;;;;;5036968;28;20535;-80
2022/07/11 05:54:58;;;;;;;11.07;5.97;;;17.80;99.90;;;;;;5036194;28;20218;-81
2022/07/11 05:57:27;;;;;;;6.57;6.03;;;17.90;99.90;;;;;;5029208;28;20200;-80
2022/07/11 05:59:54;;;;;;;7.00;6.50;;;18.40;99.90;;;;;;5033394;28;20445;-82
2022/07/11 06:02:21;;;;;;;2.92;2.72;;;18.90;99.90;;;;;;5037129;28;20429;-80
2022/07/11 06:04:47;;;;;;;5.47;5.13;;;19.10;99.90;;;;;;5012284;28;20222;-82
2022/07/11 06:08:40;;;;;;;2.87;2.20;;;19.70;99.90;;;;;;5035972;28;20277;-83
2022/07/11 06:10:01;;;;;;;6.03;5.43;;;19.70;99.90;;;;;;5020623;28;20203;-82
2022/07/11 06:12:29;;;;;;;5.90;5.47;;;19.70;99.90;;;;;;5038303;28;20229;-83
2022/07/11 06:14:57;;;;;;;3.70;3.00;;;19.60;99.90;;;;;;5030061;28;20726;-84
2022/07/11 06:17:24;;;;;;;2.03;1.90;;;19.60;99.90;;;;;;5039375;28;20203;-83
2022/07/11 06:19:50;;;;;;;5.00;4.60;;;19.50;99.90;;;;;;5023476;28;20257;-82
2022/07/11 06:22:17;;;;;;;5.47;5.00;;;19.30;99.90;;;;;;5036586;28;20202;-82
2022/07/11 06:24:44;;;;;;;6.00;5.70;;;19.30;99.90;;;;;;5028947;28;20313;-83
2022/07/11 06:27:11;;;;;;;2.63;2.43;;;19.10;99.90;;;;;;5018113;28;20207;-83
2022/07/11 06:29:40;;;;;;;4.87;4.47;;;19.20;99.90;;;;;;5037331;28;20194;-83
2022/07/11 06:35:09;;;;;;;2.50;1.90;;;19.40;99.90;;;;;;5036202;28;20190;-77
2022/07/11 06:37:36;;;;;;;3.17;2.37;;;19.40;99.90;;;;;;5032790;28;20198;-83
2022/07/11 06:40:09;;;;;;;3.97;3.60;;;19.40;99.90;;;;;;5038156;28;20726;-83
2022/07/11 06:42:36;;;;;;;3.33;2.80;;;19.50;99.90;;;;;;5051050;28;20199;-83
2022/07/11 06:45:06;;;;;;;4.60;4.20;;;19.80;99.90;;;;;;5024957;28;20617;-84
2022/07/11 06:47:33;;;;;;;4.47;4.00;;;20.00;99.90;;;;;;5008521;28;20203;-83
2022/07/11 06:50:00;;;;;;;3.10;2.80;;;19.90;99.90;;;;;;5030547;28;20211;-83
2022/07/11 06:52:27;;;;;;;4.07;3.70;;;20.40;99.90;;;;;;5022925;28;20200;-83
2022/07/11 06:54:54;;;;;;;4.50;4.20;;;21.00;99.90;;;;;;5029371;28;20227;-83
2022/07/11 06:57:20;;;;;;;5.13;4.73;;;21.60;99.90;;;;;;5023228;28;20200;-83
2022/07/11 06:59:47;;;;;;;5.10;4.80;;;22.20;99.90;;;;;;5037003;28;20192;-83
2022/07/11 07:02:16;;;;;;;6.57;5.90;;;22.30;99.90;;;;;;5029403;28;20196;-83
2022/07/11 07:04:43;;;;;;;6.40;5.80;;;22.40;99.90;;;;;;5030246;28;20242;-84
2022/07/11 07:07:09;;;;;;;6.97;5.80;;;22.50;99.90;;;;;;5032158;28;20204;-83
2022/07/11 07:09:36;;;;;;;5.80;5.40;;;22.80;99.90;;;;;;5022644;28;20251;-84
2022/07/11 07:12:03;;;;;;;4.97;4.53;;;23.10;99.90;;;;;;5026896;28;20223;-84
2022/07/11 07:14:30;;;;;;;4.83;4.47;;;23.20;99.90;;;;;;5030873;28;20265;-84
2022/07/11 07:16:57;;;;;;;6.60;5.97;;;23.70;99.90;;;;;;5039544;28;20196;-84
2022/07/11 07:19:25;;;;;;;5.27;4.97;;;23.70;99.90;;;;;;5022775;28;20234;-85
2022/07/11 07:21:52;;;;;;;6.10;5.70;;;23.90;99.90;;;;;;5010914;28;20192;-85
2022/07/11 07:24:19;;;;;;;4.47;4.07;;;24.10;99.90;;;;;;5023163;28;20227;-84
2022/07/11 07:26:46;;;;;;;6.33;5.83;;;24.50;99.90;;;;;;5036183;28;20196;-84
2022/07/11 07:29:13;;;;;;;3.37;3.07;;;24.30;99.90;;;;;;5036373;28;20654;-84
2022/07/11 07:31:40;;;;;;;3.73;3.43;;;24.50;99.90;;;;;;5039536;28;20253;-85
2022/07/11 07:34:08;;;;;;;3.73;3.27;;;24.70;99.90;;;;;;5032864;28;20217;-84
2022/07/11 07:36:36;;;;;;;3.07;2.40;;;24.60;99.90;;;;;;5028637;28;20200;-83
2022/07/11 07:39:03;;;;;;;2.53;2.33;;;24.50;99.90;;;;;;5033935;28;20206;-81
2022/07/11 07:41:30;;;;;;;3.27;2.30;;;24.60;99.90;;;;;;5018428;28;20660;-82
2022/07/11 07:43:57;;;;;;;2.67;2.47;;;24.50;99.90;;;;;;5034419;28;20204;-82
2022/07/11 07:46:24;;;;;;;2.73;2.43;;;24.70;99.90;;;;;;5022510;28;20262;-83
2022/07/11 07:48:51;;;;;;;2.83;2.50;;;24.80;99.90;;;;;;5011382;28;20469;-83
2022/07/11 07:51:17;;;;;;;6.10;5.70;;;24.70;99.90;;;;;;5020710;28;20250;-83
2022/07/11 07:53:46;;;;;;;4.40;4.10;;;24.50;99.90;;;;;;5029559;28;20220;-80
2022/07/11 07:56:13;;;;;;;6.80;6.20;;;24.70;99.90;;;;;;5038151;28;20196;-83
2022/07/11 07:58:40;;;;;;;5.90;5.50;;;24.50;99.90;;;;;;5016337;28;20736;-84
2022/07/11 08:03:52;;;;;;;5.80;5.40;;;24.80;99.90;;;;;;5022675;28;20711;-83
2022/07/11 08:06:19;;;;;;;6.20;5.70;;;24.60;99.90;;;;;;5033829;28;20204;-84
2022/07/11 08:08:49;;;;;;;6.80;6.20;;;24.70;99.90;;;;;;5040737;28;20196;-82
2022/07/11 08:11:16;;;;;;;6.07;5.57;;;25.40;99.90;;;;;;5027704;28;20677;-84
2022/07/11 08:13:43;;;;;;;6.10;5.70;;;25.80;99.90;;;;;;5035796;28;20239;-84
2022/07/11 08:16:10;;;;;;;5.97;5.60;;;26.20;99.90;;;;;;5019979;28;20444;-84
2022/07/11 08:18:37;;;;;;;2.40;2.20;;;26.40;99.90;;;;;;5037222;28;20199;-83
2022/07/11 08:21:04;;;;;;;5.77;5.37;;;26.30;99.90;;;;;;5033428;28;20672;-82
2022/07/11 08:23:30;;;;;;;6.50;6.10;;;26.50;99.90;;;;;;5027233;28;20220;-83
2022/07/11 08:25:59;;;;;;;3.63;3.43;;;26.00;99.90;;;;;;5031764;28;20195;-83
2022/07/11 08:28:25;;;;;;;3.33;3.07;;;26.30;99.90;;;;;;5030968;28;20199;-84
2022/07/11 08:30:53;;;;;;;6.03;5.63;;;26.40;99.80;;;;;;5026025;28;20442;-84
2022/07/11 08:33:19;;;;;;;3.23;2.30;;;26.40;99.50;;;;;;5020893;28;20243;-83
2022/07/11 08:35:46;;;;;;;5.70;5.40;;;26.00;99.90;;;;;;5025021;28;20221;-81
2022/07/11 08:38:13;;;;;;;5.87;5.47;;;26.10;99.90;;;;;;5013197;28;20659;-84
2022/07/11 08:40:41;;;;;;;2.17;1.97;;;26.10;99.90;;;;;;5035128;28;20250;-84
2022/07/11 08:43:15;;;;;;;4.90;4.50;;;26.20;99.90;;;;;;5039552;28;20219;-82
2022/07/11 08:45:42;;;;;;;6.22;5.72;;;26.50;99.60;;;;;;5032046;28;20433;-84
2022/07/11 08:48:09;;;;;;;2.53;1.70;;;26.70;99.90;;;;;;5033668;28;20619;-82
2022/07/11 08:50:37;;;;;;;4.90;4.50;;;26.40;98.60;;;;;;5033769;28;20274;-84
2022/07/11 08:53:05;;;;;;;5.03;4.73;;;26.00;99.60;;;;;;5030502;28;20215;-82
2022/07/11 08:55:32;;;;;;;5.00;4.70;;;26.10;99.90;;;;;;5037479;28;20187;-83
2022/07/11 08:58:00;;;;;;;5.20;4.90;;;26.30;99.20;;;;;;5026568;28;20200;-83
2022/07/11 09:00:28;;;;;;;5.30;4.93;;;26.30;99.30;;;;;;5035743;28;20199;-83
2022/07/11 09:02:55;;;;;;;5.40;5.10;;;26.70;98.30;;;;;;5040330;28;20739;-83
2022/07/11 09:05:23;;;;;;;3.13;2.93;;;26.60;98.00;;;;;;5031669;28;20776;-82
2022/07/11 09:07:50;;;;;;;2.07;1.97;;;26.80;98.30;;;;;;5025000;28;20207;-84
2022/07/11 09:10:18;;;;;;;3.87;3.67;;;27.10;98.30;;;;;;5032993;28;20201;-84
2022/07/11 09:13:02;;;;;;;5.63;5.30;;;27.30;97.10;;;;;;5037429;28;20269;-83
2022/07/11 09:15:35;;;;;;;10.90;5.63;;;27.30;95.90;;;;;;5035810;28;20253;-83
2022/07/11 09:18:03;;;;;;;5.20;4.90;;;27.10;97.70;;;;;;5022546;28;20200;-83
2022/07/11 09:26:15;;;;;;;2.37;2.27;;;27.90;94.40;;;;;;5020669;28;20249;-80
2022/07/11 09:28:42;;;;;;;1.73;1.50;;;28.30;94.80;;;;;;5018446;28;20266;-79
2022/07/11 09:31:18;;;;;;;3.93;3.63;;;28.70;93.90;;;;;;5046908;28;20195;-79
2022/07/11 09:34:01;;;;;;;5.00;4.80;;;28.60;94.00;;;;;;5055284;28;20206;-79
2022/07/11 09:36:35;;;;;;;5.20;4.90;;;28.30;92.60;;;;;;5053941;28;20207;-80
2022/07/11 09:39:03;;;;;;;5.50;5.20;;;;;;;;;;5014100;28;20241;-81
2022/07/11 09:41:32;;;;;;;4.23;4.03;;;28.40;99.90;;;;;;5024288;28;20200;-83
2022/07/11 09:44:13;;;;;;;5.50;5.20;;;28.10;99.90;;;;;;5039730;28;20246;-82
2022/07/11 09:46:43;;;;;;;4.70;4.50;;;28.10;99.90;;;;;;5030751;28;20196;-83
2022/07/11 09:49:10;;;;;;;5.40;5.13;;;28.00;99.90;;;;;;5022728;28;20196;-82
2022/07/11 09:51:38;;;;;;;1.50;1.40;;;27.40;99.90;;;;;;5041765;28;20196;-84
2022/07/11 09:54:06;;;;;;;3.60;3.40;;;27.20;99.90;;;;;;5037999;28;20695;-75
2022/07/11 09:56:35;;;;;;;5.57;5.27;;;27.10;99.90;;;;;;5033226;28;20665;-80
2022/07/11 09:59:03;;;;;;;5.50;5.20;;;27.40;99.90;;;;;;5026875;28;20239;-79
2022/07/11 10:01:30;;;;;;;3.37;3.17;;;27.40;99.90;;;;;;5017133;28;20271;-82
2022/07/11 10:03:59;;;;;;;1.40;1.40;;;27.20;99.90;;;;;;5015814;28;20216;-81
2022/07/11 10:06:27;;;;;;;1.50;1.40;;;27.50;99.90;;;;;;5049730;28;20217;-80
2022/07/11 10:08:55;;;;;;;3.40;3.30;;;27.50;99.90;;;;;;5042123;28;20286;-79
2022/07/11 10:11:22;;;;;;;1.50;1.40;;;27.70;99.90;;;;;;5030790;28;20212;-79
2022/07/11 10:13:49;;;;;;;2.13;2.03;;;27.50;99.90;;;;;;5035522;28;20241;-80
2022/07/11 10:16:26;;;;;;;1.20;1.20;;;27.30;99.90;;;;;;5032450;28;20738;-80
2022/07/11 10:19:15;;;;;;;1.80;1.77;;;27.30;99.90;;;;;;5039481;28;20265;-80
2022/07/11 10:21:52;;;;;;;2.70;2.60;;;26.50;99.90;;;;;;5036374;28;20246;-82
2022/07/11 10:24:29;;;;;;;3.30;3.10;;;26.60;99.90;;;;;;5036038;28;20266;-82
2022/07/11 10:27:01;;;;;;;1.53;1.43;;;27.10;99.90;;;;;;5037373;28;20196;-82
2022/07/11 10:29:33;;;;;;;1.40;1.40;;;26.90;99.90;;;;;;5040056;28;20621;-84
2022/07/11 10:32:11;;;;;;;2.13;2.03;;;26.20;99.90;;;;;;5022879;28;20628;-85
2022/07/11 10:34:39;;;;;;;2.17;2.07;;;26.30;99.90;;;;;;5024257;28;20251;-82
2022/07/11 10:37:08;;;;;;;6.00;5.63;;;26.70;99.90;;;;;;5040222;28;20188;-81
2022/07/11 10:39:36;;;;;;;5.00;4.70;;;26.80;99.90;;;;;;5039173;28;20237;-82
2022/07/11 10:42:05;;;;;;;3.33;3.23;;;27.20;99.90;;;;;;5021364;28;20200;-82
2022/07/11 10:44:52;;;;;;;3.30;3.20;;;27.20;99.90;;;;;;5026312;28;20294;-81
2022/07/11 10:47:36;;;;;;;5.33;5.10;;;26.60;99.90;;;;;;5032080;28;20251;-82
2022/07/11 10:50:12;;;;;;;3.80;3.60;;;26.70;99.90;;;;;;5037875;28;20355;-82
2022/07/11 10:52:41;;;;;;;1.87;1.87;;;26.80;99.90;;;;;;5035782;28;20226;-81
2022/07/11 10:55:24;;;;;;;1.50;1.40;;;27.50;99.90;;;;;;5030283;28;20247;-82
2022/07/11 10:58:03;;;;;;;1.40;1.40;;;27.50;99.90;;;;;;5027850;28;20203;-81
2022/07/11 11:00:31;;;;;;;1.53;1.43;;;27.70;99.90;;;;;;5037957;28;20265;-81
2022/07/11 11:03:06;;;;;;;1.40;1.40;;;27.30;99.90;;;;;;5055596;28;20315;-82
2022/07/11 11:05:48;;;;;;;1.50;1.40;;;27.00;99.90;;;;;;5048699;28;20223;-80
2022/07/11 11:08:47;;;;;;;1.40;1.40;;;26.20;99.90;;;;;;5046184;28;20258;-81
2022/07/11 11:11:39;;;;;;;4.27;1.50;;;25.90;99.90;;;;;;5020279;28;20203;-81
2022/07/11 11:14:28;;;;;;;1.53;1.50;;;26.20;99.90;;;;;;5033888;28;20221;-82
2022/07/11 11:16:56;;;;;;;1.40;1.40;;;26.40;99.90;;;;;;5033806;28;20247;-80
2022/07/11 11:19:55;;;;;;;1.30;1.30;;;26.20;99.90;;;;;;5037973;28;20206;-81
2022/07/11 11:22:25;;;;;;;4.70;4.50;;;26.20;99.90;;;;;;5014173;28;20200;-82
2022/07/11 11:24:54;;;;;;;4.50;4.30;;;26.20;99.90;;;;;;5037827;28;20212;-82
2022/07/11 11:27:22;;;;;;;5.23;4.93;;;26.10;99.90;;;;;;5008722;28;20193;-82
2022/07/11 11:29:53;;;;;;;2.83;2.73;;;25.80;99.90;;;;;;5035205;28;20238;-81
2022/07/11 11:32:21;;;;;;;2.87;2.77;;;25.70;99.90;;;;;;5034085;28;20588;-81
2022/07/11 11:34:48;;;;;;;4.00;3.80;;;25.80;99.90;;;;;;5045389;28;20207;-82
2022/07/11 11:37:17;;;;;;;1.50;1.50;;;25.80;99.90;;;;;;5038252;28;20231;-80
2022/07/11 11:39:46;;;;;;;1.70;1.60;;;25.80;99.90;;;;;;5029857;28;20755;-81
2022/07/11 11:42:15;;;;;;;1.60;1.50;;;25.70;99.90;;;;;;5027675;28;20192;-82
2022/07/11 11:44:51;;;;;;;2.03;1.70;;;25.70;99.90;;;;;;5036277;28;20246;-80
2022/07/11 11:47:18;;;;;;;1.70;1.70;;;26.00;99.90;;;;;;5030253;28;20192;-80
2022/07/11 11:49:45;;;;;;;1.60;1.50;;;26.00;99.90;;;;;;5037142;28;20203;-81
2022/07/11 11:52:12;;;;;;;2.70;2.60;;;25.50;99.90;;;;;;5035935;28;20222;-81
2022/07/11 11:54:40;;;;;;;5.20;4.90;;;25.50;99.90;;;;;;5036570;28;20208;-80
2022/07/11 11:57:10;;;;;;;2.20;2.03;;;25.50;99.90;;;;;;5019749;28;20196;-81
2022/07/11 11:59:39;;;;;;;1.47;1.47;;;25.60;99.90;;;;;;5029518;28;20291;-82
2022/07/11 12:02:06;;;;;;;2.03;1.93;;;25.30;99.90;;;;;;5034421;28;20279;-81
2022/07/11 12:04:34;;;;;;;2.93;2.83;;;25.30;99.90;;;;;;5037289;28;20220;-82
2022/07/11 12:07:02;;;;;;;1.70;1.60;;;25.50;99.90;;;;;;5033618;28;20204;-80
2022/07/11 12:09:49;;;;;;;1.80;1.70;;;25.50;99.90;;;;;;5016336;28;20287;-80
2022/07/11 12:15:22;;;;;;;2.63;2.43;;;25.40;99.90;;;;;;5026818;28;20200;-84
2022/07/11 12:17:50;;;;;;;3.60;3.40;;;25.10;99.90;;;;;;5026290;28;20212;-82
2022/07/11 12:20:40;;;;;;;5.23;4.83;;;25.00;99.90;;;;;;5008918;28;20232;-80
2022/07/11 12:23:10;;;;;;;3.93;3.63;;;25.30;99.90;;;;;;5031984;28;20220;-79
2022/07/11 12:25:37;;;;;;;1.70;1.60;;;25.50;99.90;;;;;;5036563;28;20761;-83
2022/07/11 12:28:07;;;;;;;1.60;1.50;;;25.40;99.90;;;;;;5031559;28;20274;-80
2022/07/11 12:30:34;;;;;;;1.60;1.50;;;25.40;99.90;;;;;;5030321;28;20202;-80
2022/07/11 12:33:10;;;;;;;2.53;1.80;;;25.60;99.90;;;;;;5027258;28;20219;-81
2022/07/11 12:35:37;;;;;;;1.77;1.67;;;25.40;99.90;;;;;;5021878;28;20196;-81
2022/07/11 12:38:12;;;;;;;4.83;4.43;;;25.20;99.90;;;;;;5028309;28;20208;-82
2022/07/11 12:40:57;;;;;;;5.20;3.77;;;24.70;99.90;;;;;;5009304;28;20207;-81
2022/07/11 12:46:18;;;;;;;2.90;2.70;;;24.30;99.90;;;;;;5130212;27;20949;-80
2022/07/11 12:48:45;;;;;;;3.80;1.80;;;24.40;99.90;;;;;;5129446;28;20188;-78
2022/07/11 12:51:20;;;;;;;2.37;2.27;;;24.70;99.90;;;;;;5128145;28;20254;-79
2022/07/11 12:53:49;;;;;;;1.77;1.67;;;25.20;99.90;;;;;;5118445;27;20713;-79
2022/07/11 12:56:23;;;;;;;1.83;1.73;;;25.30;99.90;;;;;;5107677;28;20201;-80
2022/07/11 12:58:50;;;;;;;1.77;1.67;;;25.30;99.90;;;;;;5107863;28;20250;-80
2022/07/11 13:01:18;;;;;;;4.60;4.40;;;25.00;99.90;;;;;;5108271;28;20196;-80
2022/07/11 13:03:45;;;;;;;4.53;4.23;;;25.10;99.90;;;;;;5107088;28;20220;-79
2022/07/11 13:06:12;;;;;;;2.20;2.10;;;25.20;99.90;;;;;;5101108;28;20684;-80
2022/07/11 13:08:47;;;;;;;1.93;1.80;;;25.40;99.90;;;;;;5107269;28;20201;-81
2022/07/11 13:11:15;;;;;;;1.70;1.60;;;25.50;99.90;;;;;;5106459;28;20189;-79
2022/07/11 13:13:41;;;;;;;2.10;2.00;;;25.40;99.90;;;;;;5107540;28;20233;-77
2022/07/11 13:16:10;;;;;;;1.90;1.80;;;25.40;99.90;;;;;;5107356;28;20272;-80